Time;durP1;ratioP1;P1;durP2;ratioP2;P2;SDS_P1;SDS_P2;PMS_P1;PMS_P2;Temp;Humidity;BMP_temperature;BMP_pressure;BME280_temperature;BME280_humidity;BME280_pressure;Samples;Min_cycle;Max_cycle;Signal;HPM_P1;HPM_P2
2022/09/08 00:00:38;;;;;;;6.10;1.43;;;18.70;37.10;;;;;;5022970;27;20470;-66
2022/09/08 00:03:07;;;;;;;4.57;1.50;;;18.70;37.20;;;;;;5023556;28;20558;-66
2022/09/08 00:05:39;;;;;;;7.80;1.30;;;18.70;37.40;;;;;;5022514;28;20467;-66
2022/09/08 00:08:06;;;;;;;3.77;1.47;;;18.70;37.40;;;;;;5024145;28;20734;-68
2022/09/08 00:10:33;;;;;;;6.37;1.50;;;18.70;37.60;;;;;;5020991;28;20495;-65
2022/09/08 00:13:01;;;;;;;4.87;1.80;;;18.70;37.50;;;;;;5022181;28;20459;-65
2022/09/08 00:15:29;;;;;;;4.67;1.40;;;18.80;37.40;;;;;;5023986;28;20455;-66
2022/09/08 00:17:56;;;;;;;5.40;1.60;;;18.80;37.50;;;;;;5025692;28;20483;-67
2022/09/08 00:20:23;;;;;;;6.23;1.40;;;18.70;37.60;;;;;;5024536;28;20459;-65
2022/09/08 00:22:50;;;;;;;3.90;1.20;;;18.70;37.80;;;;;;5025392;28;20463;-65
2022/09/08 00:25:16;;;;;;;5.23;1.40;;;18.80;37.70;;;;;;5029790;28;20458;-65
2022/09/08 00:27:43;;;;;;;5.60;1.47;;;18.70;37.90;;;;;;5025347;28;20479;-66
2022/09/08 00:30:12;;;;;;;5.03;1.23;;;18.70;37.80;;;;;;5023217;28;20470;-65
2022/09/08 00:32:39;;;;;;;6.13;1.83;;;18.70;37.90;;;;;;5024739;28;20502;-64
2022/09/08 00:35:08;;;;;;;5.47;1.57;;;18.70;37.90;;;;;;5023675;28;20463;-65
2022/09/08 00:37:36;;;;;;;5.87;1.60;;;18.80;38.00;;;;;;5022785;28;20510;-65
2022/09/08 00:40:04;;;;;;;4.13;1.43;;;18.70;38.10;;;;;;5026299;28;20482;-65
2022/09/08 00:42:30;;;;;;;4.20;1.60;;;18.70;38.20;;;;;;5026122;28;20459;-65
2022/09/08 00:44:57;;;;;;;3.83;1.37;;;18.70;38.20;;;;;;5024578;28;20462;-64
2022/09/08 00:47:28;;;;;;;5.90;1.90;;;18.70;38.20;;;;;;5025736;28;20831;-65
2022/09/08 00:49:59;;;;;;;5.83;2.17;;;18.70;38.10;;;;;;5020261;28;21004;-65
2022/09/08 00:52:33;;;;;;;8.20;2.00;;;18.70;38.20;;;;;;5012699;28;20948;-65
2022/09/08 00:55:00;;;;;;;6.53;2.00;;;18.70;38.20;;;;;;5021865;27;20815;-64
2022/09/08 00:57:27;;;;;;;6.27;1.80;;;18.70;38.10;;;;;;5022804;28;21032;-65
2022/09/08 00:59:54;;;;;;;4.20;1.70;;;18.80;38.00;;;;;;5023075;28;20997;-65
2022/09/08 01:02:24;;;;;;;4.67;2.00;;;18.70;37.70;;;;;;5050293;27;20481;-65
2022/09/08 01:04:57;;;;;;;5.57;2.23;;;18.70;37.80;;;;;;5022960;28;20463;-66
2022/09/08 01:13:25;;;;;;;5.40;2.20;;;18.60;39.10;;;;;;5015385;28;20511;-64
2022/09/08 01:15:52;;;;;;;6.67;2.10;;;18.50;39.30;;;;;;5019312;28;20490;-65
2022/09/08 01:18:19;;;;;;;4.60;1.63;;;18.50;39.20;;;;;;5023920;28;20475;-64
2022/09/08 01:20:53;;;;;;;4.53;1.60;;;18.50;39.40;;;;;;5019370;28;20466;-64
2022/09/08 01:23:58;;;;;;;4.87;1.70;;;18.50;39.30;;;;;;5023183;28;20451;-65
2022/09/08 01:26:37;;;;;;;5.00;2.17;;;18.50;39.50;;;;;;5023273;28;20463;-64
2022/09/08 01:29:08;;;;;;;4.40;2.10;;;18.50;39.40;;;;;;5023537;28;21007;-66
2022/09/08 01:31:40;;;;;;;5.07;1.93;;;18.40;39.60;;;;;;5014533;28;20480;-66
2022/09/08 01:34:06;;;;;;;4.50;1.60;;;18.40;39.80;;;;;;5015877;28;20997;-66
2022/09/08 01:36:34;;;;;;;5.53;1.70;;;18.40;39.90;;;;;;5019363;28;20483;-65
2022/09/08 01:39:00;;;;;;;4.20;1.60;;;18.40;40.20;;;;;;5023143;28;20466;-66
2022/09/08 01:41:27;;;;;;;4.47;1.73;;;18.30;40.30;;;;;;5016340;28;20462;-66
2022/09/08 01:43:54;;;;;;;4.70;1.80;;;18.30;40.60;;;;;;5024559;28;20466;-66
2022/09/08 01:46:22;;;;;;;5.10;1.87;;;18.30;41.00;;;;;;5019963;28;20459;-66
2022/09/08 01:48:49;;;;;;;6.30;1.70;;;18.20;41.00;;;;;;5001671;28;20452;-66
2022/09/08 01:51:15;;;;;;;4.70;1.47;;;18.30;40.80;;;;;;5011461;28;20533;-65
2022/09/08 01:53:42;;;;;;;4.90;1.40;;;18.30;40.80;;;;;;5016001;28;20466;-65
2022/09/08 01:56:09;;;;;;;4.93;1.80;;;18.20;40.60;;;;;;5013345;28;20463;-66
2022/09/08 01:58:36;;;;;;;4.97;1.57;;;18.20;40.60;;;;;;5005800;28;20491;-65
2022/09/08 02:01:02;;;;;;;5.43;1.50;;;18.20;40.70;;;;;;5000244;28;20476;-65
2022/09/08 02:03:30;;;;;;;4.53;1.73;;;18.20;40.70;;;;;;5005380;28;20463;-65
2022/09/08 02:06:01;;;;;;;6.23;1.70;;;18.20;40.80;;;;;;4998490;28;20467;-65
2022/09/08 02:08:28;;;;;;;5.10;1.60;;;18.20;40.80;;;;;;5008016;28;20480;-65
2022/09/08 02:10:57;;;;;;;5.50;1.87;;;18.30;40.60;;;;;;5009134;28;20773;-67
2022/09/08 02:13:24;;;;;;;3.60;1.10;;;18.30;40.60;;;;;;5007263;28;20447;-65
2022/09/08 02:15:51;;;;;;;4.47;1.47;;;18.30;40.70;;;;;;5013869;28;20451;-65
2022/09/08 02:18:18;;;;;;;5.30;1.70;;;18.30;40.90;;;;;;5012379;28;20471;-67
2022/09/08 02:20:46;;;;;;;4.10;1.80;;;18.40;40.80;;;;;;5004996;28;20507;-66
2022/09/08 02:23:13;;;;;;;5.83;1.50;;;18.30;40.70;;;;;;5014740;28;21156;-65
2022/09/08 02:25:39;;;;;;;3.80;1.47;;;18.30;41.10;;;;;;5014270;28;20458;-66
2022/09/08 02:28:06;;;;;;;5.07;2.07;;;18.30;41.30;;;;;;5006496;28;20472;-65
2022/09/08 02:30:33;;;;;;;6.63;1.90;;;18.30;41.20;;;;;;5017150;28;20975;-65
2022/09/08 02:32:59;;;;;;;5.67;2.00;;;18.30;41.10;;;;;;5020468;28;20455;-65
2022/09/08 02:35:26;;;;;;;5.43;1.80;;;18.30;41.20;;;;;;5021063;28;20467;-64
2022/09/08 02:37:54;;;;;;;5.27;2.27;;;18.30;41.10;;;;;;5021811;28;20489;-64
2022/09/08 02:40:21;;;;;;;5.70;2.27;;;18.30;41.00;;;;;;5008499;28;20475;-66
2022/09/08 02:42:48;;;;;;;6.50;2.00;;;18.30;41.10;;;;;;5010149;28;20471;-65
2022/09/08 02:45:15;;;;;;;4.30;1.53;;;18.40;41.10;;;;;;4999697;28;20456;-66
2022/09/08 02:47:41;;;;;;;5.70;2.13;;;18.40;41.20;;;;;;5009218;28;20494;-66
2022/09/08 02:50:09;;;;;;;5.27;1.90;;;18.40;41.20;;;;;;5015209;28;20455;-67
2022/09/08 02:52:36;;;;;;;4.50;1.70;;;18.40;41.10;;;;;;5013907;28;20467;-65
2022/09/08 02:55:06;;;;;;;4.77;1.80;;;18.40;41.10;;;;;;5014339;28;20464;-64
2022/09/08 02:57:32;;;;;;;5.50;2.20;;;18.40;40.80;;;;;;5011762;28;20849;-65
2022/09/08 02:59:59;;;;;;;7.73;2.50;;;18.40;40.70;;;;;;5021066;28;20463;-66
2022/09/08 03:02:26;;;;;;;5.77;1.87;;;18.40;40.70;;;;;;5016459;28;20494;-65
2022/09/08 03:04:53;;;;;;;6.23;2.20;;;18.40;40.70;;;;;;5019610;28;20462;-65
2022/09/08 03:07:19;;;;;;;6.10;2.30;;;18.40;40.60;;;;;;5015258;28;21051;-65
2022/09/08 03:09:47;;;;;;;4.63;1.80;;;18.50;40.80;;;;;;5016987;28;20482;-65
2022/09/08 03:12:15;;;;;;;8.03;2.00;;;18.50;40.60;;;;;;5022451;28;20486;-65
2022/09/08 03:14:42;;;;;;;8.90;3.70;;;18.50;40.60;;;;;;5011608;28;20456;-65
2022/09/08 03:17:08;;;;;;;4.60;2.07;;;18.50;40.50;;;;;;5029813;28;20478;-65
2022/09/08 03:19:35;;;;;;;5.87;1.83;;;18.40;40.50;;;;;;5036561;28;20465;-67
2022/09/08 03:22:02;;;;;;;10.10;2.83;;;18.40;40.80;;;;;;5027973;28;20455;-64
2022/09/08 03:24:29;;;;;;;5.33;3.00;;;18.50;40.80;;;;;;5010442;28;20505;-65
2022/09/08 03:26:55;;;;;;;7.27;2.80;;;18.50;40.90;;;;;;5017326;28;20472;-65
2022/09/08 03:29:24;;;;;;;4.60;2.50;;;18.50;40.80;;;;;;5021887;28;20463;-65
2022/09/08 03:31:50;;;;;;;5.50;2.73;;;18.50;40.80;;;;;;5014540;28;20475;-66
2022/09/08 03:34:17;;;;;;;5.63;3.10;;;18.50;40.70;;;;;;5022310;28;20464;-67
2022/09/08 03:36:44;;;;;;;5.57;2.70;;;18.50;40.70;;;;;;5018546;28;20479;-65
2022/09/08 03:39:10;;;;;;;7.40;2.67;;;18.50;40.60;;;;;;5018933;28;20481;-65
2022/09/08 03:41:37;;;;;;;6.90;2.70;;;18.50;40.50;;;;;;5013975;28;20821;-65
2022/09/08 03:44:04;;;;;;;6.00;3.10;;;18.50;40.20;;;;;;5015225;28;20455;-65
2022/09/08 03:46:32;;;;;;;5.67;2.70;;;18.50;40.20;;;;;;5014894;28;20486;-65
2022/09/08 03:48:59;;;;;;;5.20;2.53;;;18.50;40.30;;;;;;5018971;28;20459;-66
2022/09/08 03:51:26;;;;;;;5.13;2.40;;;18.50;40.30;;;;;;5026116;28;20896;-65
2022/09/08 03:54:46;;;;;;;4.57;2.27;;;18.50;40.20;;;;;;5021104;28;20451;-66
2022/09/08 03:56:41;;;;;;;4.93;2.53;;;18.50;40.20;;;;;;5030207;23;21032;-60
2022/09/08 03:59:08;;;;;;;4.87;2.27;;;18.50;40.20;;;;;;5035836;27;20462;-60
2022/09/08 04:01:36;;;;;;;4.83;2.20;;;18.50;40.20;;;;;;5014526;28;21185;-59
2022/09/08 04:04:03;;;;;;;4.10;1.73;;;18.40;40.10;;;;;;5022888;28;20451;-58
2022/09/08 04:06:30;;;;;;;5.77;2.10;;;18.40;40.00;;;;;;5023483;28;20484;-59
2022/09/08 04:08:57;;;;;;;3.90;1.60;;;18.40;40.00;;;;;;5025281;28;20492;-59
2022/09/08 04:11:24;;;;;;;3.80;1.37;;;18.40;40.00;;;;;;5024495;28;20480;-59
2022/09/08 04:13:51;;;;;;;4.70;1.80;;;18.40;40.10;;;;;;5026065;28;20542;-60
2022/09/08 04:16:18;;;;;;;4.67;1.57;;;18.40;40.00;;;;;;5023256;28;20488;-59
2022/09/08 04:18:46;;;;;;;4.37;1.60;;;18.40;40.00;;;;;;5018057;28;20462;-59
2022/09/08 04:21:13;;;;;;;4.10;1.43;;;18.40;40.00;;;;;;5024030;28;20466;-58
2022/09/08 04:23:40;;;;;;;5.60;1.63;;;18.40;39.90;;;;;;5023056;28;20897;-59
2022/09/08 04:26:11;;;;;;;3.97;1.40;;;18.30;40.00;;;;;;5023386;28;20482;-59
2022/09/08 04:28:39;;;;;;;5.20;1.60;;;18.30;40.10;;;;;;5019288;28;20460;-59
2022/09/08 04:31:07;;;;;;;4.63;1.43;;;18.20;40.10;;;;;;5013156;28;20970;-59
2022/09/08 04:33:35;;;;;;;4.30;1.50;;;18.30;40.10;;;;;;5012055;28;20460;-60
2022/09/08 04:36:07;;;;;;;4.27;1.33;;;18.20;40.30;;;;;;5020665;28;20470;-59
2022/09/08 04:38:34;;;;;;;3.70;1.20;;;18.20;40.40;;;;;;5019917;28;20468;-59
2022/09/08 04:41:03;;;;;;;5.23;1.40;;;18.30;40.30;;;;;;5024239;28;20481;-59
2022/09/08 04:43:31;;;;;;;4.10;1.20;;;18.30;40.30;;;;;;5016124;28;20460;-59
2022/09/08 04:46:02;;;;;;;4.03;1.20;;;18.20;40.30;;;;;;5018681;28;20491;-59
2022/09/08 04:48:30;;;;;;;5.10;1.00;;;18.20;40.40;;;;;;5024153;28;20470;-59
2022/09/08 04:50:57;;;;;;;4.07;1.40;;;18.20;40.30;;;;;;5019579;28;20527;-59
2022/09/08 04:53:25;;;;;;;4.90;1.60;;;18.20;40.40;;;;;;5026474;28;20461;-60
2022/09/08 04:55:52;;;;;;;4.20;1.10;;;18.20;40.50;;;;;;5019580;28;20478;-58
2022/09/08 04:58:19;;;;;;;4.20;1.27;;;18.20;40.60;;;;;;5022220;28;20462;-59
2022/09/08 05:00:46;;;;;;;3.87;1.37;;;18.10;40.90;;;;;;5016913;28;20501;-59
2022/09/08 05:03:12;;;;;;;3.70;1.00;;;18.10;41.00;;;;;;5017251;28;20456;-59
2022/09/08 05:05:39;;;;;;;3.60;1.10;;;18.10;41.00;;;;;;5022768;28;21004;-59
2022/09/08 05:08:06;;;;;;;4.10;1.50;;;18.10;41.20;;;;;;5026664;28;20462;-59
2022/09/08 05:10:34;;;;;;;5.27;1.53;;;18.10;41.20;;;;;;5028678;27;20807;-59
2022/09/08 05:13:02;;;;;;;5.63;1.40;;;18.10;41.30;;;;;;5026603;28;20481;-59
2022/09/08 05:15:30;;;;;;;5.27;1.80;;;18.10;41.30;;;;;;5016902;28;20459;-59
2022/09/08 05:17:57;;;;;;;6.23;1.37;;;18.10;41.10;;;;;;5019838;28;20542;-59
2022/09/08 05:20:23;;;;;;;5.37;1.53;;;18.10;41.40;;;;;;5023939;28;20462;-59
2022/09/08 05:22:50;;;;;;;4.23;1.50;;;18.10;41.30;;;;;;5019206;28;20483;-59
2022/09/08 05:25:17;;;;;;;4.00;1.30;;;18.20;41.30;;;;;;5018508;28;20875;-59
2022/09/08 05:27:45;;;;;;;4.00;1.37;;;18.20;41.20;;;;;;5010174;28;20842;-59
2022/09/08 05:30:12;;;;;;;4.53;1.67;;;18.20;41.20;;;;;;5012982;28;20456;-60
2022/09/08 05:32:39;;;;;;;5.73;1.63;;;18.20;41.10;;;;;;5022671;28;20486;-59
2022/09/08 05:35:08;;;;;;;4.70;1.60;;;18.30;41.10;;;;;;5023679;28;20459;-59
2022/09/08 05:37:34;;;;;;;4.00;1.80;;;18.30;41.00;;;;;;5018207;28;20480;-59
2022/09/08 05:40:02;;;;;;;4.87;1.80;;;18.30;41.10;;;;;;5018772;28;20816;-59
2022/09/08 05:42:28;;;;;;;6.03;1.90;;;18.30;40.90;;;;;;5015407;28;20909;-59
2022/09/08 05:44:57;;;;;;;7.20;1.97;;;18.30;40.90;;;;;;5009483;23;20600;-59
2022/09/08 05:47:23;;;;;;;4.20;1.83;;;18.30;41.10;;;;;;5067760;28;20463;-58
2022/09/08 05:49:50;;;;;;;4.00;1.80;;;18.30;40.80;;;;;;5087406;28;20452;-59
2022/09/08 05:52:17;;;;;;;6.80;1.90;;;18.40;40.90;;;;;;5087676;28;20484;-59
2022/09/08 05:54:44;;;;;;;4.67;1.90;;;18.40;41.00;;;;;;5086100;28;20580;-58
2022/09/08 05:57:11;;;;;;;6.40;1.83;;;18.40;40.70;;;;;;5072583;28;20457;-59
2022/09/08 05:59:38;;;;;;;4.70;1.70;;;18.40;40.70;;;;;;5066183;28;20461;-59
2022/09/08 06:02:06;;;;;;;4.83;1.40;;;18.40;41.30;;;;;;5064227;28;20469;-59
2022/09/08 06:04:33;;;;;;;4.17;1.37;;;18.40;40.60;;;;;;5069496;28;20457;-59
2022/09/08 06:07:00;;;;;;;6.73;1.57;;;18.50;41.10;;;;;;5062941;28;20989;-59
2022/09/08 06:09:27;;;;;;;4.13;1.20;;;18.40;40.40;;;;;;5064115;28;20463;-59
2022/09/08 06:11:53;;;;;;;5.17;1.23;;;18.40;40.40;;;;;;5062604;28;20473;-59
2022/09/08 06:14:20;;;;;;;4.33;1.00;;;18.40;40.50;;;;;;5067037;28;20465;-60
2022/09/08 06:16:47;;;;;;;5.33;1.87;;;18.40;40.20;;;;;;5066818;28;20449;-59
2022/09/08 06:19:15;;;;;;;3.50;1.10;;;18.40;40.60;;;;;;5065519;28;20460;-59
2022/09/08 06:21:42;;;;;;;3.50;1.00;;;18.40;40.20;;;;;;5060183;28;20449;-59
2022/09/08 06:24:13;;;;;;;4.10;1.13;;;18.40;40.40;;;;;;5066860;28;20466;-59
2022/09/08 06:27:06;;;;;;;3.50;1.00;;;18.40;40.40;;;;;;5064970;28;20473;-59
2022/09/08 06:29:54;;;;;;;5.37;1.00;;;18.40;40.30;;;;;;5063251;28;20465;-59
2022/09/08 06:32:27;;;;;;;3.40;0.80;;;18.40;40.10;;;;;;5065703;28;20575;-59
2022/09/08 06:34:59;;;;;;;4.47;1.27;;;18.40;39.90;;;;;;5062011;28;20565;-59
2022/09/08 06:37:34;;;;;;;5.43;0.93;;;18.40;40.40;;;;;;5059716;28;21077;-59
2022/09/08 06:40:06;;;;;;;3.63;0.97;;;18.40;39.90;;;;;;5064168;28;20461;-59
2022/09/08 06:42:42;;;;;;;4.30;0.87;;;18.40;39.80;;;;;;5059787;28;20893;-59
2022/09/08 06:45:17;;;;;;;4.00;0.90;;;18.40;40.00;;;;;;5062320;28;20494;-59
2022/09/08 06:47:53;;;;;;;3.77;1.00;;;18.40;40.00;;;;;;5065359;28;20956;-59
2022/09/08 06:50:21;;;;;;;4.20;1.33;;;18.40;40.20;;;;;;5064263;28;20460;-59
2022/09/08 06:52:49;;;;;;;4.07;1.10;;;18.40;40.20;;;;;;5066631;28;20480;-59
2022/09/08 06:55:26;;;;;;;3.83;1.10;;;18.50;40.30;;;;;;5066568;28;20477;-59
2022/09/08 06:58:05;;;;;;;3.40;0.70;;;18.50;40.10;;;;;;5064673;28;20465;-59
2022/09/08 07:00:42;;;;;;;4.37;1.00;;;18.60;40.00;;;;;;5057607;28;20455;-59
2022/09/08 07:03:18;;;;;;;3.90;1.20;;;18.60;39.80;;;;;;5061687;28;20828;-59
2022/09/08 07:06:05;;;;;;;5.10;1.20;;;18.70;39.50;;;;;;5066138;28;20492;-59
2022/09/08 07:08:50;;;;;;;3.80;1.00;;;18.70;39.30;;;;;;5060733;28;20461;-59
2022/09/08 07:11:32;;;;;;;3.83;0.97;;;18.80;39.30;;;;;;5054713;28;20950;-59
2022/09/08 07:14:05;;;;;;;5.27;1.00;;;18.80;39.20;;;;;;5060833;28;20464;-59
2022/09/08 07:16:38;;;;;;;5.30;0.80;;;18.80;39.10;;;;;;5056205;28;20473;-59
2022/09/08 07:19:13;;;;;;;4.03;0.80;;;18.80;39.40;;;;;;5060899;28;20934;-59
2022/09/08 07:21:49;;;;;;;4.87;1.23;;;18.80;38.70;;;;;;5058855;28;20822;-59
2022/09/08 07:24:20;;;;;;;3.40;0.80;;;18.80;38.70;;;;;;5061754;28;20453;-59
2022/09/08 07:26:52;;;;;;;5.20;0.90;;;18.80;38.80;;;;;;5063170;28;20484;-59
2022/09/08 07:29:22;;;;;;;4.87;0.90;;;18.90;38.70;;;;;;5067400;28;20457;-59
2022/09/08 07:31:52;;;;;;;5.10;1.20;;;18.90;38.10;;;;;;5063027;28;20852;-59
2022/09/08 07:34:22;;;;;;;5.00;0.90;;;19.00;38.20;;;;;;5065209;28;20692;-59
2022/09/08 07:37:00;;;;;;;5.20;1.50;;;19.10;38.10;;;;;;5068233;28;20945;-59
2022/09/08 07:39:34;;;;;;;3.80;0.93;;;19.20;37.80;;;;;;5063494;28;21058;-59
2022/09/08 07:42:03;;;;;;;3.23;0.67;;;19.40;37.30;;;;;;5068789;28;20921;-59
2022/09/08 07:44:29;;;;;;;4.20;1.10;;;19.50;36.80;;;;;;5067562;28;20543;-60
2022/09/08 07:47:18;;;;;;;4.27;0.90;;;19.70;35.90;;;;;;5067669;28;20456;-59
2022/09/08 07:49:53;;;;;;;5.10;0.90;;;19.80;35.70;;;;;;5066278;28;20471;-59
2022/09/08 07:52:30;;;;;;;4.90;0.70;;;19.80;34.90;;;;;;5068363;28;20847;-60
2022/09/08 07:55:10;;;;;;;6.80;1.10;;;19.80;35.00;;;;;;5066123;28;20473;-59
2022/09/08 07:57:45;;;;;;;4.70;0.73;;;19.70;35.00;;;;;;5068606;28;20465;-59
2022/09/08 08:00:16;;;;;;;3.43;0.60;;;19.70;35.10;;;;;;5066353;28;20461;-59
2022/09/08 08:03:00;;;;;;;3.60;0.80;;;19.70;35.20;;;;;;5070024;28;20812;-59
2022/09/08 08:05:33;;;;;;;3.70;0.70;;;19.70;35.10;;;;;;5068935;28;20538;-59
2022/09/08 08:08:12;;;;;;;4.53;0.97;;;19.70;35.10;;;;;;5067776;28;20465;-59
2022/09/08 08:10:46;;;;;;;3.77;0.83;;;19.70;35.10;;;;;;5070446;28;20461;-59
2022/09/08 08:13:24;;;;;;;3.63;0.60;;;19.90;34.80;;;;;;5063135;28;20483;-59
2022/09/08 08:15:59;;;;;;;4.13;0.80;;;20.10;34.00;;;;;;5043027;28;20477;-59
2022/09/08 08:18:35;;;;;;;3.60;0.90;;;20.20;33.90;;;;;;5056726;28;20457;-59
2022/09/08 08:21:07;;;;;;;4.27;1.10;;;20.30;33.40;;;;;;5055914;28;20467;-59
2022/09/08 08:23:50;;;;;;;5.93;0.97;;;20.50;33.20;;;;;;5065769;28;20543;-59
2022/09/08 08:26:28;;;;;;;3.50;0.70;;;20.80;32.40;;;;;;5062399;28;20510;-59
2022/09/08 08:29:11;;;;;;;3.73;0.90;;;20.90;31.20;;;;;;5062794;28;20460;-59
2022/09/08 08:31:46;;;;;;;3.33;0.73;;;21.00;30.70;;;;;;5064010;28;21103;-59
2022/09/08 08:34:21;;;;;;;3.60;1.27;;;21.00;30.70;;;;;;5060777;28;20993;-59
2022/09/08 08:36:50;;;;;;;3.27;1.03;;;21.00;30.80;;;;;;5041449;28;20975;-60
2022/09/08 08:39:21;;;;;;;6.33;0.90;;;21.00;30.50;;;;;;5048714;28;20460;-58
2022/09/08 08:42:07;;;;;;;3.30;0.70;;;21.10;30.30;;;;;;5063237;28;21133;-59
2022/09/08 08:44:56;;;;;;;4.03;1.00;;;21.20;29.70;;;;;;5062685;28;20484;-59
2022/09/08 08:47:38;;;;;;;4.60;1.40;;;21.30;28.60;;;;;;5060873;28;20469;-59
2022/09/08 08:50:45;;;;;;;4.97;1.17;;;21.70;27.60;;;;;;5067058;28;20444;-59
2022/09/08 08:53:50;;;;;;;3.77;1.30;;;21.90;27.20;;;;;;5016097;28;20485;-59
2022/09/08 08:56:26;;;;;;;4.27;0.90;;;21.80;26.40;;;;;;5061433;28;20477;-59
2022/09/08 08:59:20;;;;;;;3.80;1.07;;;23.30;24.90;;;;;;5062227;28;20485;-59
2022/09/08 09:02:10;;;;;;;3.60;1.00;;;24.30;20.70;;;;;;5065765;28;20497;-59
2022/09/08 09:04:58;;;;;;;4.57;1.30;;;24.70;18.80;;;;;;5065404;28;20465;-59
2022/09/08 09:07:52;;;;;;;5.43;1.10;;;24.60;18.20;;;;;;5069141;28;20457;-59
2022/09/08 09:10:48;;;;;;;5.47;1.83;;;24.50;18.70;;;;;;5064339;28;20465;-59
2022/09/08 09:13:41;;;;;;;3.47;0.90;;;24.70;18.20;;;;;;5047401;28;20980;-59
2022/09/08 09:16:29;;;;;;;3.50;1.00;;;24.80;17.90;;;;;;5061362;28;20472;-59
2022/09/08 09:19:22;;;;;;;4.70;1.67;;;25.30;18.20;;;;;;5058864;28;20461;-60
2022/09/08 09:21:54;;;;;;;3.53;1.03;;;29.10;13.50;;;;;;5061618;28;20540;-60
2022/09/08 09:24:36;;;;;;;3.80;0.80;;;31.20;8.00;;;;;;5064147;28;20610;-59
2022/09/08 09:27:13;;;;;;;4.57;0.90;;;33.10;4.40;;;;;;5065300;28;20506;-60
2022/09/08 09:29:42;;;;;;;3.30;0.80;;;35.20;1.10;;;;;;5041360;28;20468;-61
2022/09/08 09:32:37;;;;;;;3.90;1.10;;;35.90;1.00;;;;;;5062544;28;20473;-60
2022/09/08 09:35:28;;;;;;;4.67;0.90;;;37.20;1.00;;;;;;5061399;28;20489;-60
2022/09/08 09:38:37;;;;;;;3.50;1.10;;;39.40;1.00;;;;;;5059969;28;20450;-60
2022/09/08 09:41:30;;;;;;;5.60;0.90;;;41.60;1.00;;;;;;5064150;28;20965;-60
2022/09/08 09:44:11;;;;;;;3.40;1.00;;;41.50;1.00;;;;;;5063222;28;20795;-60
2022/09/08 09:47:13;;;;;;;2.80;0.60;;;39.90;1.00;;;;;;5058698;28;20489;-60
2022/09/08 09:50:04;;;;;;;3.13;0.90;;;38.10;1.00;;;;;;5018891;28;20464;-61
2022/09/08 09:52:38;;;;;;;3.93;0.80;;;38.00;1.00;;;;;;5060555;28;20445;-60
2022/09/08 09:55:23;;;;;;;4.53;0.80;;;38.60;1.00;;;;;;5063339;28;20476;-60
2022/09/08 09:58:28;;;;;;;4.20;0.80;;;38.70;1.00;;;;;;5064476;28;20459;-60
2022/09/08 10:01:21;;;;;;;3.97;0.77;;;38.40;1.00;;;;;;5057678;28;20483;-60
2022/09/08 10:04:19;;;;;;;3.30;1.03;;;37.20;1.00;;;;;;5062809;28;20457;-60
2022/09/08 10:07:07;;;;;;;3.90;0.90;;;37.70;1.00;;;;;;5059676;28;20803;-60
2022/09/08 10:10:09;;;;;;;3.37;1.00;;;36.70;1.00;;;;;;5066711;28;20510;-60
2022/09/08 10:13:10;;;;;;;4.50;1.30;;;35.20;1.00;;;;;;5060917;28;21162;-60
2022/09/08 10:16:20;;;;;;;3.77;1.00;;;33.60;1.00;;;;;;5061660;28;20482;-60
2022/09/08 10:19:35;;;;;;;3.77;1.00;;;32.60;1.00;;;;;;5066658;28;20941;-60
2022/09/08 10:22:32;;;;;;;3.80;0.70;;;35.20;1.00;;;;;;5063602;28;20458;-60
2022/09/08 10:25:38;;;;;;;3.70;1.03;;;36.20;1.00;;;;;;5026728;28;20474;-60
2022/09/08 10:28:52;;;;;;;3.40;1.03;;;34.20;1.00;;;;;;5061367;28;20967;-60
2022/09/08 10:31:54;;;;;;;3.97;0.90;;;33.70;1.00;;;;;;5062586;28;20473;-59
2022/09/08 10:34:55;;;;;;;5.60;1.23;;;34.30;1.00;;;;;;5062212;28;20488;-59
2022/09/08 10:37:45;;;;;;;5.00;1.03;;;35.80;1.00;;;;;;5064825;28;20480;-59
2022/09/08 10:40:26;;;;;;;3.40;0.83;;;35.50;1.00;;;;;;5057384;28;20458;-59
2022/09/08 10:42:56;;;;;;;3.37;0.70;;;33.90;1.00;;;;;;5061181;28;20464;-59
2022/09/08 10:45:47;;;;;;;4.17;1.00;;;32.80;1.00;;;;;;5057431;28;20504;-60
2022/09/08 10:48:41;;;;;;;3.50;0.80;;;31.80;1.00;;;;;;5059090;28;20462;-60
2022/09/08 10:51:32;;;;;;;3.77;1.00;;;31.80;1.10;;;;;;5021593;28;20690;-59
2022/09/08 10:54:16;;;;;;;5.83;0.97;;;32.50;1.80;;;;;;5057285;28;20485;-60
2022/09/08 10:56:45;;;;;;;3.40;0.80;;;33.90;1.00;;;;;;5057644;28;20517;-59
2022/09/08 10:59:44;;;;;;;4.80;1.10;;;34.80;1.00;;;;;;5058650;28;20458;-60
2022/09/08 11:02:15;;;;;;;3.90;0.93;;;37.00;1.00;;;;;;5053527;28;20565;-60
2022/09/08 11:05:11;;;;;;;4.27;0.87;;;38.50;1.00;;;;;;5058599;28;20476;-59
2022/09/08 11:08:04;;;;;;;4.50;0.87;;;39.10;1.00;;;;;;5054895;28;20746;-60
2022/09/08 11:10:54;;;;;;;3.07;0.93;;;39.10;1.00;;;;;;5056693;28;20462;-60
2022/09/08 11:13:30;;;;;;;3.70;0.90;;;38.00;1.00;;;;;;5052938;28;20490;-60
2022/09/08 11:16:29;;;;;;;4.50;1.00;;;35.80;1.00;;;;;;5052726;28;20485;-60
2022/09/08 11:19:13;;;;;;;3.30;0.93;;;34.90;1.00;;;;;;5057549;28;20472;-60
2022/09/08 11:21:54;;;;;;;4.03;1.50;;;33.90;1.00;;;;;;5055826;28;20449;-59
2022/09/08 11:24:29;;;;;;;3.27;0.90;;;32.60;1.00;;;;;;5058629;28;20456;-59
2022/09/08 11:27:05;;;;;;;5.67;1.17;;;31.40;1.00;;;;;;5056218;28;20453;-59
2022/09/08 11:29:36;;;;;;;4.03;0.90;;;30.70;2.80;;;;;;5018362;28;20461;-59
2022/09/08 11:32:13;;;;;;;5.10;1.03;;;30.20;4.00;;;;;;5060317;28;21028;-59
2022/09/08 11:34:55;;;;;;;6.27;1.07;;;29.90;5.00;;;;;;5064604;28;20821;-59
2022/09/08 11:37:54;;;;;;;3.53;0.87;;;29.60;5.80;;;;;;5060984;28;20466;-59
2022/09/08 11:40:51;;;;;;;3.87;0.90;;;29.30;4.30;;;;;;5066139;28;20453;-59
2022/09/08 11:43:30;;;;;;;3.90;1.00;;;28.90;5.20;;;;;;5059719;28;20468;-59
2022/09/08 11:49:04;;;;;;;3.70;0.83;;;28.50;5.10;;;;;;5037365;28;20477;-62
2022/09/08 11:51:43;;;;;;;4.30;0.90;;;28.30;5.60;;;;;;4996820;28;20455;-62
2022/09/08 11:54:36;;;;;;;3.60;1.00;;;28.00;6.70;;;;;;5039626;28;20477;-62
2022/09/08 11:57:31;;;;;;;3.77;0.80;;;27.80;6.10;;;;;;5038661;27;20570;-63
2022/09/08 12:00:19;;;;;;;4.50;1.03;;;27.60;6.70;;;;;;5032372;27;20478;-61
2022/09/08 12:03:21;;;;;;;3.30;0.90;;;27.60;7.90;;;;;;5026377;27;20963;-61
2022/09/08 12:06:21;;;;;;;11.10;1.10;;;27.60;7.90;;;;;;5026870;27;20851;-61
2022/09/08 12:09:09;;;;;;;4.67;1.00;;;27.60;8.40;;;;;;5029626;27;20455;-61
2022/09/08 12:12:08;;;;;;;4.67;1.13;;;27.50;7.90;;;;;;5039169;27;20881;-61
2022/09/08 12:14:44;;;;;;;3.50;0.70;;;27.40;8.00;;;;;;5046668;27;20481;-61
2022/09/08 12:17:24;;;;;;;4.87;1.20;;;27.30;6.70;;;;;;5030555;27;20473;-61
2022/09/08 12:20:03;;;;;;;3.40;0.80;;;27.10;6.80;;;;;;5034959;27;20461;-61
2022/09/08 12:22:51;;;;;;;5.00;0.87;;;27.00;7.10;;;;;;5034513;27;20461;-61
2022/09/08 12:25:58;;;;;;;4.27;0.70;;;26.70;6.70;;;;;;5043697;27;20454;-63
2022/09/08 12:28:41;;;;;;;3.93;0.60;;;26.50;7.80;;;;;;5031366;27;20522;-61
2022/09/08 12:31:28;;;;;;;3.40;0.87;;;26.50;8.60;;;;;;5034390;27;20483;-61
2022/09/08 12:34:42;;;;;;;4.70;0.80;;;26.30;8.60;;;;;;5032454;27;20477;-61
2022/09/08 12:37:14;;;;;;;4.17;0.90;;;26.00;9.00;;;;;;4997379;27;21059;-61
2022/09/08 12:40:26;;;;;;;3.20;0.87;;;25.70;9.00;;;;;;5034435;27;20460;-61
2022/09/08 12:43:09;;;;;;;4.00;0.93;;;25.50;8.70;;;;;;4994016;28;20459;-61
2022/09/08 12:45:51;;;;;;;4.60;0.77;;;25.30;9.80;;;;;;5031026;27;20469;-61
2022/09/08 12:48:29;;;;;;;5.10;0.90;;;25.10;10.60;;;;;;5030928;27;21084;-61
2022/09/08 12:51:02;;;;;;;4.03;0.80;;;25.10;11.10;;;;;;5031971;27;20518;-63
2022/09/08 12:53:48;;;;;;;4.50;1.13;;;25.20;10.90;;;;;;5036557;27;20450;-61
2022/09/08 12:56:26;;;;;;;5.40;1.23;;;25.10;11.10;;;;;;5033227;27;21227;-61
2022/09/08 12:59:04;;;;;;;3.30;0.80;;;24.90;11.30;;;;;;5033633;27;20458;-61
2022/09/08 13:01:39;;;;;;;6.37;1.80;;;24.80;11.90;;;;;;5037420;27;20892;-61
2022/09/08 13:04:30;;;;;;;3.03;0.73;;;24.80;12.30;;;;;;5033435;27;20945;-61
2022/09/08 13:07:10;;;;;;;5.60;1.50;;;24.90;12.20;;;;;;5019398;28;20477;-61
2022/09/08 13:09:52;;;;;;;3.50;0.80;;;24.90;12.10;;;;;;5042031;27;20461;-61
2022/09/08 13:12:37;;;;;;;4.30;1.10;;;24.80;11.80;;;;;;5032856;27;20454;-63
2022/09/08 13:15:24;;;;;;;3.20;0.67;;;24.80;11.90;;;;;;5038993;27;20474;-61
2022/09/08 13:17:58;;;;;;;4.40;1.07;;;24.70;10.90;;;;;;5030269;27;20989;-63
2022/09/08 13:20:37;;;;;;;4.40;0.90;;;24.60;12.20;;;;;;5034388;27;20459;-61
2022/09/08 13:23:21;;;;;;;4.37;0.90;;;24.40;11.50;;;;;;5032673;27;20543;-62
2022/09/08 13:25:54;;;;;;;3.83;0.60;;;24.30;11.10;;;;;;5040750;27;20463;-61
2022/09/08 13:28:36;;;;;;;3.70;0.70;;;24.20;11.80;;;;;;5038961;27;20485;-61
2022/09/08 13:31:15;;;;;;;3.23;0.80;;;24.10;11.10;;;;;;5030292;27;20494;-62
2022/09/08 13:33:54;;;;;;;3.30;0.70;;;24.00;11.40;;;;;;5031382;27;20514;-61
2022/09/08 13:36:42;;;;;;;3.30;0.63;;;23.90;11.70;;;;;;5028367;27;20483;-61
2022/09/08 13:39:34;;;;;;;3.13;0.67;;;23.90;11.90;;;;;;5032103;27;20499;-61
2022/09/08 13:42:29;;;;;;;3.60;1.17;;;24.00;11.20;;;;;;5021771;27;20853;-62